Portada
METAR-TAF:

METAR-TAF

Aeropuertos :

Aeropuerto de Saint-Étienne - Bouthéon

Saint-Etienne, Francia

latitud: 45-32N, longitud: 004-18E, altitud: 404 m

Observación

El informe se hizo hace 34 minutos, a las 21:30 UTC
Viento 7 kt del sur
Temperatura 14°C
Humedad 63%
Presión 1016 hPa
Visibilidad 10 km o más
Escasas nubes a una altura de 5200 ft
Cielo cubierto a una altura de 9200 ft

METAR: LFMH 162130Z AUTO 18007KT 9999 FEW052 OVC092 14/07 Q1016

Hora: 00:04 (22:04 UTC)

Pronóstico

El informe se hizo hace 8 horas y 4 minutos, a las 14:00 UTC
Pronóstico válido del 16 a las 15 UTC al 17 a las 15 UTC
Viento 8 kt del sur-sureste
Visibilidad 10 km o más
sin nubes por debajo de 1500 m y sin presencia de cumulonimbus.

TAF: LFMH 161400Z 1615/1715 16008KT CAVOK

Observaciones y pronósticos meteorológicos de más de 4000 aeropuertos (mensajes METAR y TAF).

Los puntos amarillos y rojos representan las estaciones disponibles.

Ponga el ratón en el punto deseado para ver el nombre de la estación.

Haga clic para ver las observaciones y los pronósticos meteorológicos.

Para cambiar el mapa : haga clic en los botones verdes con una cruz de color negro para hacer un zoom, en el botón verde con un guión para alejar o en las flechas verdes para mapas adyacentes.


METAR-TAF: